Oslo, MN

09:17 PM CDT on Maart 29, 2015 (GMT -0500)
Grand Forks International | | Change Station
CLOSE
Current Station
Airport
Location: Grand Forks,
Elevation: 843 ft
Nearby Weather Stations

Elev 843 ft 47.95 °N, 97.18 °W | Updated 24 minutes ago

Gedeeltelik Bewolk
Gedeeltelik Bewolk
41 °F
Feels Like 36 °F
N
8
Wind Veranderlik Wind from Wes

Vandag
High -- | Low -- °F
--% Chance of Precip.
Yesterday
High -- | Low -- °F
Precip. -- in
7:13 AM 7:54 PM
Waxing Gibbous, 76% visible
Druk 29.92 in
Sigbaarheid 10.0 myle
Wolke Verspreide Wolke 8500 ft
Wind afkoel 36 °F
Dou-punt 30 °F
Humiditeit 65%
Rainfall 0.10 in
Snow Depth Not available.
UV 0 out of 12
Pollen 1.10 out of 12
Air Quality Not available.
Flu Activity Not available.
METAR KGFK 300153Z 28007KT 10SM SCT085 05/M01 A2989 RMK AO2 SLP132 T00501011

More Conditions Fewer Conditions

Druk 29.92 in
Sigbaarheid 10.0 myle
Wolke Verspreide Wolke 8500 ft
Wind afkoel 36 °F
Dou-punt 30 °F
Humiditeit 65%
Rainfall 0.10 in
Snow Depth Not available.
UV 0 out of 12
Pollen 1.10 out of 12
Air Quality Not available.
Flu Activity Not available.
METAR KGFK 300153Z 28007KT 10SM SCT085 05/M01 A2989 RMK AO2 SLP132 T00501011

More Conditions Fewer Conditions

10-Day Weather Forecast

Almanac

Astronomy

Mar. 29, 2015 Rise Set
Ware Tyd
Civil Twilight
Nautical Twilight
Astronomical Twilight
Maan
Length Of Visible Light
Length of Day
Tomorrow will be .
, % of the Moon is Illuminated

Today's Extremes

State Highs State Lows

Community

WunderPhotos

Upload Photos

1,809,411 photos uploaded!

WunderBlogs® & News

Nearby

Air Quality

  Air Quality AQ Index Pollutant
Not available.

Snow Depth

Station Depth Elevation

Earthquake Activity

Stad Distance Mag. Time & Date
Minimum magnitude displayed is 2.5.

Coastal Water Temperatures

Plek Temperatuur

Stations

Nearby Weather Stations

Station Location Temp Wind afkoel Dou-punt Humiditeit Wind Precip. Elev Opdateer Type